Addison Township, MI

8:24 PM EST on December 24, 2014 (GMT -0500)
Village of Leonard | Change Station
CLOSE
Current Station
Personal Weather Station
Location: Leonard, MI
Elevation: 1014 ft
Nearby Weather Stations
Active Advisory: Wind Advisory Active Notice: Public Information Statement

Elev 1014 ft 42.87 °N, 83.15 °W | Updated 4 seconds ago

Overcast
Overcast
39.9 °F
Feels Like 36 °F
N
5.1
Wind Variable Wind from North
Gusts 7.4 mph

Today
High -- | Low -- °F
--% Chance of Precip.
Yesterday
High -- | Low -- °F
Precip. -- in
8:01 AM 5:03 PM
Waxing Crescent, 12% visible
Pressure 29.26 in
Visibility 10.0 miles
Clouds Overcast 600 ft
Windchill 36 °F
Dew Point 35 °F
Humidity 84%
Rainfall 0.93 in
Snow Depth Not available.
UV 0 out of 12
Pollen .10 out of 12
Air Quality Not available.
Flu Activity Not available.
METAR KD95 250114Z AUTO 27010G14KT 10SM OVC006 03/03 A2926 RMK AO2 T00280025

More Conditions Fewer Conditions

Pressure 29.26 in
Visibility 10.0 miles
Clouds Overcast 600 ft
Windchill 36 °F
Dew Point 35 °F
Humidity 84%
Rainfall 0.93 in
Snow Depth Not available.
UV 0 out of 12
Pollen .10 out of 12
Air Quality Not available.
Flu Activity Not available.
METAR KD95 250114Z AUTO 27010G14KT 10SM OVC006 03/03 A2926 RMK AO2 T00280025

More Conditions Fewer Conditions

10-Day Weather Forecast

Almanac

Astronomy

Dec. 24, 2014 Rise Set
Actual Time
Civil Twilight
Nautical Twilight
Astronomical Twilight
Moon
Length of Visible Light
Length of Day
Tomorrow will be .
, % of the Moon is Illuminated

Today's Extremes

State Highs State Lows

Community

WunderPhotos

Upload Photos

1,780,203 photos uploaded!

WunderBlogs® & News

Nearby

Air Quality

  Air Quality AQ Index Pollutant
Not available.

Snow Depth

Station Depth Elevation

Earthquake Activity

City Distance Mag. Time & Date
Minimum magnitude displayed is 2.5.

Coastal Water Temperatures

Place Temperature

Nearby Weather Stations